Time;durP1;ratioP1;P1;durP2;ratioP2;P2;SDS_P1;SDS_P2;PMS_P1;PMS_P2;Temp;Humidity;BMP_temperature;BMP_pressure;BME280_temperature;BME280_humidity;BME280_pressure;Samples;Min_cycle;Max_cycle;Signal;HPM_P1;HPM_P2
2023/04/06 00:01:55;;;;;;;9.57;3.75;;;5.10;99.90;;;;;;5015358;28;20494;-74
2023/04/06 00:04:21;;;;;;;7.53;4.07;;;5.10;99.90;;;;;;5017846;28;20033;-74
2023/04/06 00:06:47;;;;;;;5.68;3.50;;;5.00;99.90;;;;;;5018775;28;20029;-73
2023/04/06 00:09:13;;;;;;;8.65;4.47;;;5.00;99.90;;;;;;5016925;28;20026;-75
2023/04/06 00:11:38;;;;;;;6.78;3.70;;;5.00;99.90;;;;;;5017112;28;20758;-74
2023/04/06 00:14:04;;;;;;;7.30;3.85;;;5.00;99.90;;;;;;5017249;28;20397;-74
2023/04/06 00:16:30;;;;;;;9.02;3.92;;;5.00;99.90;;;;;;5015973;28;20022;-75
2023/04/06 00:18:55;;;;;;;9.20;4.13;;;4.90;99.90;;;;;;4997660;28;20481;-73
2023/04/06 00:21:21;;;;;;;7.88;3.70;;;4.90;99.90;;;;;;5017438;28;20108;-74
2023/04/06 00:23:47;;;;;;;8.57;4.18;;;4.90;99.90;;;;;;5033663;28;20703;-73
2023/04/06 00:26:13;;;;;;;5.55;3.65;;;4.90;99.90;;;;;;5017834;28;20030;-73
2023/04/06 00:28:39;;;;;;;6.63;4.03;;;4.90;99.90;;;;;;5018094;28;20033;-73
2023/04/06 00:31:04;;;;;;;6.18;3.53;;;4.80;99.90;;;;;;5019100;28;20470;-73
2023/04/06 00:33:30;;;;;;;7.95;4.13;;;4.80;99.90;;;;;;5011693;28;20022;-75
2023/04/06 00:35:56;;;;;;;10.45;4.00;;;4.80;99.90;;;;;;5020716;28;20021;-75
2023/04/06 00:38:22;;;;;;;8.15;4.10;;;4.80;99.90;;;;;;5015716;28;20034;-74
2023/04/06 00:40:48;;;;;;;7.93;4.05;;;4.80;99.90;;;;;;5017504;28;20155;-74
2023/04/06 00:43:14;;;;;;;11.30;4.22;;;4.70;99.90;;;;;;5014362;28;20079;-72
2023/04/06 00:45:41;;;;;;;10.43;3.97;;;4.70;99.90;;;;;;5019561;28;20087;-75
2023/04/06 00:48:07;;;;;;;6.47;3.97;;;4.70;99.90;;;;;;5014133;28;20397;-75
2023/04/06 00:50:34;;;;;;;7.18;3.97;;;4.70;99.90;;;;;;5048104;28;20049;-75
2023/04/06 00:53:00;;;;;;;6.60;4.03;;;4.70;99.90;;;;;;5017479;28;20045;-73
2023/04/06 00:55:29;;;;;;;6.90;3.65;;;4.70;99.90;;;;;;5048357;28;20650;-74
2023/04/06 00:57:58;;;;;;;7.90;4.07;;;4.60;99.90;;;;;;5016678;28;20750;-75
2023/04/06 01:00:24;;;;;;;7.97;4.45;;;4.60;99.90;;;;;;5016627;28;20509;-74
2023/04/06 01:02:50;;;;;;;10.73;3.55;;;4.60;99.90;;;;;;5016339;28;20116;-73
2023/04/06 01:05:16;;;;;;;7.65;3.92;;;4.60;99.90;;;;;;5016798;28;20029;-74
2023/04/06 01:07:41;;;;;;;8.90;4.43;;;4.50;99.90;;;;;;5015596;28;20095;-74
2023/04/06 01:10:08;;;;;;;9.13;4.03;;;4.50;99.90;;;;;;5015560;28;20022;-74
2023/04/06 01:12:33;;;;;;;9.90;4.63;;;4.50;99.90;;;;;;5015766;28;20043;-74
2023/04/06 01:14:59;;;;;;;8.82;4.00;;;4.50;99.90;;;;;;5017051;28;20025;-75
2023/04/06 01:17:28;;;;;;;6.50;3.65;;;4.50;99.90;;;;;;5013970;28;20121;-79
2023/04/06 01:19:54;;;;;;;10.23;4.35;;;4.50;99.90;;;;;;5014924;28;20108;-76
2023/04/06 01:22:20;;;;;;;8.52;3.80;;;4.50;99.90;;;;;;5017448;28;20026;-73
2023/04/06 01:24:46;;;;;;;9.50;4.25;;;4.50;99.90;;;;;;5015615;28;20095;-73
2023/04/06 01:27:13;;;;;;;8.93;4.85;;;4.40;99.90;;;;;;5019095;28;20053;-73
2023/04/06 01:29:41;;;;;;;8.20;4.30;;;4.40;99.90;;;;;;5015676;28;20041;-75
2023/04/06 01:32:07;;;;;;;8.52;3.80;;;4.40;99.90;;;;;;5013182;28;20027;-73
2023/04/06 01:34:33;;;;;;;10.02;4.75;;;4.40;99.90;;;;;;5017801;28;20026;-76
2023/04/06 01:36:59;;;;;;;7.22;4.28;;;4.40;99.90;;;;;;5022301;28;20091;-75
2023/04/06 01:39:25;;;;;;;13.50;4.55;;;4.30;99.90;;;;;;5018788;28;20021;-76
2023/04/06 01:41:51;;;;;;;10.15;4.55;;;4.30;99.90;;;;;;5015516;28;20497;-74
2023/04/06 01:44:18;;;;;;;8.02;4.47;;;4.30;99.90;;;;;;5018687;28;20549;-73
2023/04/06 01:46:45;;;;;;;8.52;4.72;;;4.30;99.90;;;;;;5014318;28;20172;-73
2023/04/06 01:49:12;;;;;;;10.30;4.40;;;4.30;99.90;;;;;;5010948;28;20095;-77
2023/04/06 01:51:37;;;;;;;8.23;4.40;;;4.30;99.90;;;;;;5014303;28;20116;-75
2023/04/06 01:54:04;;;;;;;9.90;4.68;;;4.30;99.90;;;;;;5015687;28;20122;-75
2023/04/06 01:56:29;;;;;;;11.02;4.95;;;4.30;99.90;;;;;;5018270;28;20025;-76
2023/04/06 01:58:56;;;;;;;9.75;4.50;;;4.30;99.90;;;;;;5014889;28;20596;-76
2023/04/06 02:01:22;;;;;;;8.43;3.92;;;4.30;99.90;;;;;;5013269;28;20132;-76
2023/04/06 02:03:48;;;;;;;9.68;4.30;;;4.30;99.90;;;;;;5009989;28;20033;-75
2023/04/06 02:06:13;;;;;;;8.45;4.45;;;4.30;99.90;;;;;;5012598;28;20037;-73
2023/04/06 02:08:39;;;;;;;8.30;4.45;;;4.30;99.90;;;;;;5010876;28;20034;-75
2023/04/06 02:11:05;;;;;;;9.02;4.45;;;4.30;99.90;;;;;;4996985;28;20026;-75
2023/04/06 02:13:31;;;;;;;9.60;4.05;;;4.30;99.90;;;;;;5010182;28;20457;-75
2023/04/06 02:15:57;;;;;;;12.98;5.25;;;4.20;99.90;;;;;;5011581;28;20026;-73
2023/04/06 02:18:22;;;;;;;12.48;5.00;;;4.20;99.90;;;;;;5012659;28;20022;-73
2023/04/06 02:20:48;;;;;;;9.00;5.03;;;4.20;99.90;;;;;;5012608;28;20040;-74
2023/04/06 02:23:14;;;;;;;8.15;4.35;;;4.20;99.90;;;;;;5013220;28;20461;-74
2023/04/06 02:25:40;;;;;;;10.32;4.53;;;4.20;99.90;;;;;;5015153;28;20029;-73
2023/04/06 02:28:06;;;;;;;8.65;4.78;;;4.20;99.90;;;;;;5014961;28;20534;-76
2023/04/06 02:30:35;;;;;;;10.23;4.53;;;4.10;99.90;;;;;;5015579;28;20117;-76
2023/04/06 02:33:01;;;;;;;7.03;4.43;;;4.10;99.90;;;;;;5016611;28;20031;-75
2023/04/06 02:35:31;;;;;;;8.38;4.22;;;4.10;99.90;;;;;;5016057;28;20033;-74
2023/04/06 02:37:57;;;;;;;9.73;4.40;;;4.10;99.90;;;;;;5019776;28;20034;-75
2023/04/06 02:40:25;;;;;;;12.10;4.78;;;4.10;99.90;;;;;;5016569;28;20048;-75
2023/04/06 02:42:50;;;;;;;8.50;4.55;;;4.10;99.90;;;;;;5018880;28;20029;-74
2023/04/06 02:45:16;;;;;;;8.75;4.82;;;4.10;99.90;;;;;;5016926;28;20547;-74
2023/04/06 02:47:43;;;;;;;8.43;4.95;;;4.00;99.90;;;;;;5017865;28;20038;-82
2023/04/06 02:50:09;;;;;;;8.77;5.03;;;4.00;99.90;;;;;;5051343;28;20100;-73
2023/04/06 02:52:35;;;;;;;7.82;5.03;;;4.00;99.90;;;;;;5003686;28;20026;-74
2023/04/06 02:55:02;;;;;;;8.30;5.03;;;4.00;99.90;;;;;;5016452;28;20060;-74
2023/04/06 02:57:28;;;;;;;8.32;4.68;;;4.00;99.90;;;;;;5018237;28;20021;-78
2023/04/06 02:59:53;;;;;;;9.15;5.25;;;4.00;99.90;;;;;;5014417;28;20029;-74
2023/04/06 03:02:19;;;;;;;10.27;5.30;;;4.00;99.90;;;;;;5014814;28;20029;-74
2023/04/06 03:04:45;;;;;;;9.13;4.90;;;4.00;99.90;;;;;;5011320;28;20079;-73
2023/04/06 03:07:11;;;;;;;7.78;4.85;;;4.00;99.90;;;;;;5012010;28;20033;-73
2023/04/06 03:09:38;;;;;;;8.68;4.40;;;4.00;99.90;;;;;;5018564;28;20063;-73
2023/04/06 03:12:04;;;;;;;12.13;5.05;;;4.00;99.90;;;;;;4998765;28;20028;-74
2023/04/06 03:14:30;;;;;;;9.10;4.80;;;3.90;99.90;;;;;;5014772;28;20017;-74
2023/04/06 03:16:55;;;;;;;9.40;5.28;;;3.90;99.90;;;;;;5010798;28;20148;-74
2023/04/06 03:19:21;;;;;;;8.43;5.68;;;3.90;99.90;;;;;;5013388;28;20025;-75
2023/04/06 03:21:47;;;;;;;10.02;6.18;;;3.90;99.90;;;;;;5014137;28;20120;-75
2023/04/06 03:24:13;;;;;;;12.60;5.72;;;3.90;99.90;;;;;;5012738;28;20387;-76
2023/04/06 03:26:39;;;;;;;8.50;5.72;;;3.90;99.90;;;;;;5016935;28;20030;-74
2023/04/06 03:29:05;;;;;;;11.15;5.75;;;3.90;99.90;;;;;;5016980;28;20080;-75
2023/04/06 03:31:31;;;;;;;9.18;5.53;;;3.90;99.90;;;;;;4999035;28;20463;-73
2023/04/06 03:33:56;;;;;;;7.85;5.72;;;3.90;99.90;;;;;;5014613;28;20030;-75
2023/04/06 03:36:22;;;;;;;9.32;5.82;;;3.90;99.90;;;;;;5019276;28;20111;-74
2023/04/06 03:38:48;;;;;;;8.32;5.45;;;3.90;99.90;;;;;;5019918;28;20076;-76
2023/04/06 03:41:14;;;;;;;9.57;5.38;;;3.90;99.90;;;;;;5015982;28;20096;-75
2023/04/06 03:43:39;;;;;;;9.13;6.18;;;3.90;99.90;;;;;;5013834;28;20287;-75
2023/04/06 03:46:05;;;;;;;9.55;5.93;;;3.90;99.90;;;;;;5012274;28;20036;-74
2023/04/06 03:48:31;;;;;;;8.52;5.20;;;3.90;99.90;;;;;;5014410;28;20438;-74
2023/04/06 03:50:56;;;;;;;9.15;6.05;;;3.90;99.90;;;;;;5018958;28;20029;-77
2023/04/06 03:53:22;;;;;;;8.45;5.70;;;3.80;99.90;;;;;;5019766;28;20025;-76
2023/04/06 03:55:48;;;;;;;9.05;6.10;;;3.80;99.90;;;;;;5020005;28;20030;-75
2023/04/06 03:58:14;;;;;;;10.48;5.80;;;3.80;99.90;;;;;;5018861;28;20514;-74
2023/04/06 04:00:40;;;;;;;9.45;6.03;;;3.80;99.90;;;;;;5017039;28;20029;-77
2023/04/06 04:03:05;;;;;;;13.35;6.60;;;3.80;99.90;;;;;;5015146;28;20401;-75
2023/04/06 04:05:31;;;;;;;11.73;5.97;;;3.80;99.90;;;;;;5012481;28;20037;-74
2023/04/06 04:07:57;;;;;;;10.70;6.28;;;3.80;99.90;;;;;;5016057;28;20026;-73
2023/04/06 04:10:23;;;;;;;10.45;6.72;;;3.80;99.90;;;;;;5016859;28;20029;-73
2023/04/06 04:12:51;;;;;;;13.30;7.38;;;3.70;99.90;;;;;;5015020;28;20030;-75
2023/04/06 04:15:17;;;;;;;12.57;7.75;;;3.70;99.90;;;;;;5014480;28;20029;-75
2023/04/06 04:17:46;;;;;;;11.77;6.93;;;3.70;99.90;;;;;;5017492;28;20493;-76
2023/04/06 04:20:16;;;;;;;17.10;8.15;;;3.70;99.90;;;;;;5021792;28;20034;-75
2023/04/06 04:22:42;;;;;;;11.82;7.75;;;3.60;99.90;;;;;;5017834;28;20148;-75
2023/04/06 04:25:08;;;;;;;12.68;7.15;;;3.60;99.90;;;;;;5013484;28;20030;-73
2023/04/06 04:27:34;;;;;;;12.48;6.50;;;3.60;99.90;;;;;;5049698;28;20086;-73
2023/04/06 04:30:00;;;;;;;13.70;7.68;;;3.60;99.90;;;;;;5012579;28;20084;-73
2023/04/06 04:32:27;;;;;;;10.65;7.10;;;3.60;99.90;;;;;;5017275;28;20025;-74
2023/04/06 04:34:53;;;;;;;16.63;7.57;;;3.60;99.90;;;;;;5017098;28;20025;-72
2023/04/06 04:37:19;;;;;;;12.02;7.13;;;3.60;99.90;;;;;;5017739;28;20032;-74
2023/04/06 04:39:45;;;;;;;12.38;7.38;;;3.50;99.90;;;;;;5014041;28;20809;-76
2023/04/06 04:42:11;;;;;;;11.77;7.47;;;3.50;99.90;;;;;;5019969;28;20053;-75
2023/04/06 04:44:37;;;;;;;18.67;7.82;;;3.40;99.90;;;;;;5015741;28;20029;-78
2023/04/06 04:47:03;;;;;;;12.38;7.32;;;3.40;99.90;;;;;;5016444;28;20086;-75
2023/04/06 04:49:29;;;;;;;13.75;8.23;;;3.40;99.90;;;;;;5014447;28;20030;-76
2023/04/06 04:51:55;;;;;;;11.23;7.97;;;3.50;99.90;;;;;;5013348;28;20490;-73
2023/04/06 04:54:21;;;;;;;12.35;7.03;;;3.40;99.90;;;;;;5014439;28;20033;-76
2023/04/06 04:56:46;;;;;;;12.68;7.55;;;3.40;99.90;;;;;;5018752;28;20436;-77
2023/04/06 04:59:12;;;;;;;14.15;7.43;;;3.40;99.90;;;;;;5014238;28;20060;-72
2023/04/06 05:01:38;;;;;;;13.93;7.43;;;3.40;99.90;;;;;;5014465;28;20053;-76
2023/04/06 05:04:04;;;;;;;17.60;7.53;;;3.40;99.90;;;;;;5013670;28;20041;-78
2023/04/06 05:06:30;;;;;;;13.40;7.85;;;3.40;99.90;;;;;;4999900;28;20026;-76
2023/04/06 05:08:55;;;;;;;15.65;7.35;;;3.40;99.90;;;;;;5014379;28;20060;-76
2023/04/06 05:11:21;;;;;;;15.65;8.05;;;3.40;99.90;;;;;;5018622;28;20026;-76
2023/04/06 05:13:47;;;;;;;14.25;8.52;;;3.40;99.90;;;;;;5013953;28;20048;-74
2023/04/06 05:16:13;;;;;;;11.05;7.40;;;3.40;99.90;;;;;;5013259;28;20025;-76
2023/04/06 05:18:39;;;;;;;14.70;7.45;;;3.40;99.90;;;;;;4999752;28;20037;-72
2023/04/06 05:21:04;;;;;;;13.18;7.82;;;3.40;99.90;;;;;;5016157;28;20122;-72
2023/04/06 05:23:30;;;;;;;14.00;6.95;;;3.40;99.90;;;;;;5032255;28;20029;-72
2023/04/06 05:25:56;;;;;;;17.35;7.70;;;3.40;99.90;;;;;;5021124;28;20276;-76
2023/04/06 05:28:22;;;;;;;15.90;7.13;;;3.50;99.90;;;;;;5015796;28;20048;-72
2023/04/06 05:30:48;;;;;;;14.43;7.70;;;3.50;99.90;;;;;;5013829;28;20022;-73
2023/04/06 05:33:14;;;;;;;12.45;6.85;;;3.50;99.90;;;;;;5012597;28;20053;-73
2023/04/06 05:35:39;;;;;;;12.07;7.93;;;3.50;99.90;;;;;;4996455;28;20030;-72
2023/04/06 05:38:08;;;;;;;15.30;7.40;;;3.60;99.90;;;;;;5013539;28;20108;-73
2023/04/06 05:40:34;;;;;;;14.23;7.80;;;3.60;99.90;;;;;;4997125;28;20105;-75
2023/04/06 05:43:00;;;;;;;13.43;7.40;;;3.60;99.90;;;;;;5015984;28;20448;-72
2023/04/06 05:45:26;;;;;;;10.60;6.97;;;3.60;99.90;;;;;;5014433;28;20112;-72
2023/04/06 05:47:52;;;;;;;14.30;7.95;;;3.60;99.90;;;;;;5014262;28;20122;-75
2023/04/06 05:50:18;;;;;;;13.73;7.65;;;3.70;99.90;;;;;;5047274;28;20049;-77
2023/04/06 05:52:46;;;;;;;16.05;7.57;;;3.70;99.90;;;;;;5012891;28;20045;-75
2023/04/06 05:55:12;;;;;;;14.85;7.30;;;3.80;99.90;;;;;;5014868;28;20038;-72
2023/04/06 05:57:37;;;;;;;15.65;7.35;;;3.80;99.90;;;;;;5015958;28;20041;-76
2023/04/06 06:00:06;;;;;;;13.23;7.50;;;3.80;99.90;;;;;;5012379;28;20457;-76
2023/04/06 06:02:32;;;;;;;12.77;7.43;;;3.80;99.90;;;;;;5017612;28;20132;-75
2023/04/06 06:04:58;;;;;;;14.77;6.97;;;3.90;99.90;;;;;;5018478;28;20053;-72
2023/04/06 06:07:23;;;;;;;12.88;7.30;;;3.90;99.90;;;;;;5015127;28;20117;-76
2023/04/06 06:09:50;;;;;;;16.63;7.95;;;4.00;99.90;;;;;;5014772;28;20033;-75
2023/04/06 06:12:16;;;;;;;15.48;8.68;;;4.00;99.90;;;;;;5012574;28;20100;-74
2023/04/06 06:14:42;;;;;;;12.88;7.55;;;4.00;99.90;;;;;;5009547;28;20175;-74
2023/04/06 06:17:08;;;;;;;13.18;6.78;;;4.10;99.90;;;;;;5011407;28;20577;-72
2023/04/06 06:19:34;;;;;;;12.15;7.80;;;4.10;99.90;;;;;;5016674;28;20049;-73
2023/04/06 06:22:02;;;;;;;11.75;7.03;;;4.10;99.90;;;;;;5017931;28;20857;-76
2023/04/06 06:24:28;;;;;;;15.43;7.70;;;4.10;99.90;;;;;;5014101;28;20025;-76
2023/04/06 06:26:54;;;;;;;12.05;6.95;;;4.20;99.90;;;;;;5012044;28;20038;-76
2023/04/06 06:29:20;;;;;;;12.60;7.82;;;4.20;99.90;;;;;;4997618;28;20022;-74
2023/04/06 06:31:45;;;;;;;11.55;7.65;;;4.30;99.90;;;;;;5017424;28;20034;-72
2023/04/06 06:34:12;;;;;;;16.13;8.18;;;4.40;99.90;;;;;;4998955;28;20029;-73
2023/04/06 06:36:38;;;;;;;12.90;7.68;;;4.40;99.90;;;;;;5017988;28;20104;-75
2023/04/06 06:39:04;;;;;;;15.02;8.32;;;4.40;99.90;;;;;;5014822;28;20717;-74
2023/04/06 06:41:30;;;;;;;10.02;7.45;;;4.50;99.90;;;;;;5015828;28;20029;-74
2023/04/06 06:43:55;;;;;;;17.17;8.13;;;4.60;99.90;;;;;;5014275;28;20033;-74
2023/04/06 06:46:21;;;;;;;12.73;7.68;;;4.60;99.90;;;;;;5014012;28;20026;-74
2023/04/06 06:48:47;;;;;;;13.48;7.90;;;4.60;99.90;;;;;;5016257;28;20064;-78
2023/04/06 06:51:13;;;;;;;16.17;7.50;;;4.60;99.90;;;;;;5017320;28;20026;-73
2023/04/06 06:53:39;;;;;;;14.52;7.13;;;4.70;99.90;;;;;;5017823;28;20049;-78
2023/04/06 06:56:05;;;;;;;14.02;7.70;;;4.70;99.90;;;;;;5018176;28;20022;-73
2023/04/06 06:58:31;;;;;;;11.10;7.18;;;4.80;99.90;;;;;;4995934;28;20049;-73
2023/04/06 07:00:58;;;;;;;11.57;7.10;;;4.80;99.90;;;;;;5008259;28;20112;-74
2023/04/06 07:03:23;;;;;;;10.75;7.15;;;4.90;99.90;;;;;;5017198;28;20033;-76
2023/04/06 07:05:52;;;;;;;12.15;7.45;;;4.90;99.90;;;;;;5012577;28;20026;-76
2023/04/06 07:08:22;;;;;;;15.75;6.85;;;5.00;99.90;;;;;;5016610;28;20459;-74
2023/04/06 07:10:56;;;;;;;12.52;6.93;;;5.00;99.90;;;;;;5015659;28;20056;-74
2023/04/06 07:13:23;;;;;;;10.43;6.47;;;5.00;99.90;;;;;;5013757;28;20022;-77
2023/04/06 07:15:52;;;;;;;13.93;6.93;;;5.10;99.90;;;;;;5013810;28;20022;-76
2023/04/06 07:18:19;;;;;;;16.92;7.47;;;5.10;99.90;;;;;;5015668;28;20026;-77
2023/04/06 07:20:45;;;;;;;12.23;7.13;;;5.20;99.90;;;;;;5013894;28;20594;-75
2023/04/06 07:23:11;;;;;;;11.65;7.07;;;5.20;99.90;;;;;;5016718;28;20034;-74
2023/04/06 07:25:37;;;;;;;11.07;7.00;;;5.20;99.90;;;;;;5015652;28;20032;-73
2023/04/06 07:28:03;;;;;;;11.07;6.82;;;5.30;99.90;;;;;;5011879;28;20026;-74
2023/04/06 07:30:29;;;;;;;11.25;6.43;;;5.30;99.90;;;;;;5016914;28;20445;-75
2023/04/06 07:32:56;;;;;;;14.00;7.70;;;5.30;99.90;;;;;;4998027;28;20052;-74
2023/04/06 07:35:23;;;;;;;14.68;7.00;;;5.40;99.90;;;;;;5015151;28;20083;-75
2023/04/06 07:37:49;;;;;;;10.95;6.75;;;5.40;99.90;;;;;;5014801;28;20049;-74
2023/04/06 07:40:15;;;;;;;10.18;5.95;;;5.40;99.90;;;;;;5015838;28;20152;-73
2023/04/06 07:42:41;;;;;;;9.68;6.05;;;5.50;99.90;;;;;;5015681;28;20573;-73
2023/04/06 07:45:07;;;;;;;7.60;5.72;;;5.50;99.90;;;;;;5016684;28;20413;-74
2023/04/06 07:47:33;;;;;;;13.25;7.18;;;5.60;99.90;;;;;;5015538;28;20159;-74
2023/04/06 07:50:00;;;;;;;10.50;5.38;;;5.60;99.90;;;;;;5015290;28;20472;-76
2023/04/06 07:52:26;;;;;;;9.40;6.28;;;5.70;99.90;;;;;;4999338;28;20072;-72
2023/04/06 07:54:52;;;;;;;12.82;7.22;;;5.70;99.90;;;;;;5013665;28;20041;-78
2023/04/06 07:57:18;;;;;;;11.70;6.28;;;5.70;99.90;;;;;;5014928;28;20026;-73
2023/04/06 07:59:44;;;;;;;12.48;5.90;;;5.80;99.90;;;;;;5013297;28;20136;-79
2023/04/06 08:02:10;;;;;;;10.38;5.43;;;5.80;99.30;;;;;;5047399;28;20096;-73
2023/04/06 08:04:36;;;;;;;11.35;5.65;;;5.90;99.40;;;;;;5011540;28;20030;-73
2023/04/06 08:07:01;;;;;;;11.35;5.55;;;6.00;99.70;;;;;;5015590;28;20124;-73
2023/04/06 08:09:27;;;;;;;10.88;6.00;;;6.00;99.70;;;;;;5016275;28;20075;-76
2023/04/06 08:11:53;;;;;;;7.18;5.22;;;6.10;99.30;;;;;;5016090;28;20043;-73
2023/04/06 08:14:19;;;;;;;8.18;5.53;;;6.20;98.90;;;;;;5025378;28;20087;-74
2023/04/06 08:16:45;;;;;;;9.85;5.40;;;6.20;98.20;;;;;;5019977;28;20037;-76
2023/04/06 08:19:11;;;;;;;11.70;5.68;;;6.30;98.20;;;;;;5002657;28;20103;-75
2023/04/06 08:21:37;;;;;;;10.07;6.00;;;6.30;97.10;;;;;;5018510;28;20076;-74
2023/04/06 08:24:04;;;;;;;9.75;5.50;;;6.30;96.00;;;;;;5017139;28;20121;-75
2023/04/06 08:26:29;;;;;;;14.25;6.32;;;6.40;96.20;;;;;;5017932;28;20031;-74
2023/04/06 08:28:55;;;;;;;10.77;6.13;;;6.40;96.80;;;;;;5018829;28;20029;-74
2023/04/06 08:31:21;;;;;;;12.90;6.25;;;6.50;95.90;;;;;;5018071;28;20062;-74
2023/04/06 08:33:47;;;;;;;12.73;6.95;;;6.50;95.90;;;;;;5026869;28;20029;-72
2023/04/06 08:36:14;;;;;;;11.80;6.40;;;6.60;95.40;;;;;;5030036;28;20048;-74
2023/04/06 08:38:41;;;;;;;9.20;5.45;;;6.60;96.20;;;;;;5021012;28;20490;-73
2023/04/06 08:41:12;;;;;;;9.07;5.38;;;6.60;95.30;;;;;;5019459;28;20519;-74
2023/04/06 08:43:48;;;;;;;;;;;6.80;93.70;;;;;;5021941;28;20025;-75
2023/04/06 08:46:14;;;;;;;10.75;5.97;;;6.80;94.10;;;;;;5050694;28;19935;-75
2023/04/06 08:48:42;;;;;;;10.38;6.28;;;6.90;94.20;;;;;;5019617;28;20049;-75
2023/04/06 08:51:12;;;;;;;11.60;6.40;;;6.90;94.50;;;;;;5051852;28;20073;-75
2023/04/06 08:53:39;;;;;;;9.63;5.88;;;7.00;93.50;;;;;;5017978;28;20124;-74
2023/04/06 08:56:05;;;;;;;11.15;6.20;;;7.10;92.60;;;;;;5016751;28;20030;-73
2023/04/06 08:58:38;;;;;;;10.18;5.65;;;7.20;92.10;;;;;;4999999;28;20026;-72
2023/04/06 09:01:11;;;;;;;10.05;5.82;;;7.20;90.90;;;;;;5016078;28;20156;-73
2023/04/06 09:03:41;;;;;;;10.10;5.20;;;7.30;90.80;;;;;;5016150;28;20529;-73
2023/04/06 09:06:08;;;;;;;13.07;5.68;;;7.40;91.50;;;;;;5020911;28;20432;-73
2023/04/06 09:08:34;;;;;;;14.50;5.82;;;7.50;91.10;;;;;;5016805;28;20549;-74
2023/04/06 09:11:02;;;;;;;9.63;5.95;;;7.60;91.00;;;;;;5014506;28;20120;-76
2023/04/06 09:13:28;;;;;;;10.60;6.30;;;7.70;88.70;;;;;;5018362;28;20152;-74
2023/04/06 09:16:05;;;;;;;16.35;7.55;;;7.70;87.70;;;;;;5016788;28;20022;-73
2023/04/06 09:18:33;;;;;;;11.85;6.20;;;7.80;88.80;;;;;;5017383;28;20105;-76
2023/04/06 09:21:04;;;;;;;6.78;4.63;;;7.80;88.10;;;;;;5037920;28;20025;-78
2023/04/06 09:23:29;;;;;;;;;;;7.90;85.00;;;;;;5018893;28;20502;-75
2023/04/06 09:26:11;;;;;;;10.18;4.57;;;7.90;84.50;;;;;;5017103;28;19952;-75
2023/04/06 09:28:53;;;;;;;11.90;5.18;;;8.30;84.50;;;;;;5018383;28;20033;-74
2023/04/06 09:31:22;;;;;;;9.55;4.95;;;8.20;82.20;;;;;;5018110;28;20033;-76
2023/04/06 09:33:49;;;;;;;8.60;4.82;;;8.20;81.90;;;;;;5017365;28;20108;-75
2023/04/06 09:36:17;;;;;;;10.27;4.00;;;8.20;81.20;;;;;;5017314;28;20030;-74
2023/04/06 09:38:54;;;;;;;6.93;4.10;;;8.20;80.00;;;;;;5015391;28;20117;-74
2023/04/06 09:41:24;;;;;;;8.40;3.97;;;8.30;80.00;;;;;;5018288;28;20049;-77
2023/04/06 09:44:10;;;;;;;7.88;4.93;;;8.50;84.40;;;;;;5020932;28;20025;-76
2023/04/06 09:46:44;;;;;;;7.78;4.03;;;8.50;79.60;;;;;;5016802;28;20401;-75
2023/04/06 09:49:11;;;;;;;7.75;3.88;;;8.50;81.50;;;;;;5020424;28;20045;-74
2023/04/06 09:51:49;;;;;;;9.73;4.50;;;8.60;79.40;;;;;;5016912;28;20092;-75
2023/04/06 09:54:19;;;;;;;9.73;4.38;;;8.60;78.90;;;;;;5018817;28;20036;-75
2023/04/06 09:57:11;;;;;;;8.18;4.25;;;8.70;76.70;;;;;;5003083;28;20113;-75
2023/04/06 09:59:37;;;;;;;9.93;4.40;;;8.70;75.00;;;;;;5000216;28;20041;-75
2023/04/06 10:02:06;;;;;;;5.57;3.83;;;8.70;73.40;;;;;;5020579;28;20037;-73
2023/04/06 10:04:54;;;;;;;11.02;3.67;;;8.70;72.20;;;;;;5000934;28;20116;-75
2023/04/06 10:07:21;;;;;;;5.38;3.53;;;8.80;73.30;;;;;;5019467;28;20363;-75
2023/04/06 10:09:47;;;;;;;6.93;4.38;;;8.90;71.20;;;;;;5049481;28;20033;-75
2023/04/06 10:12:13;;;;;;;8.65;3.90;;;8.90;69.80;;;;;;5019898;28;20099;-75
2023/04/06 10:14:41;;;;;;;5.53;3.40;;;8.90;69.50;;;;;;5018089;28;20096;-75
2023/04/06 10:17:07;;;;;;;7.43;4.32;;;8.90;69.20;;;;;;5016656;28;20026;-78
2023/04/06 10:19:46;;;;;;;6.50;4.32;;;9.00;68.10;;;;;;5031868;28;20102;-76
2023/04/06 10:22:18;;;;;;;6.97;3.67;;;9.10;68.50;;;;;;5014613;28;20705;-78
2023/04/06 10:24:45;;;;;;;6.00;3.67;;;9.10;68.00;;;;;;5043995;28;20045;-77
2023/04/06 10:27:11;;;;;;;8.40;4.32;;;9.20;67.30;;;;;;5016262;28;20513;-79
2023/04/06 10:29:48;;;;;;;5.43;3.38;;;9.20;66.70;;;;;;5008506;28;20034;-74
2023/04/06 10:32:14;;;;;;;7.45;3.72;;;9.20;65.90;;;;;;5003194;28;20034;-78
2023/04/06 10:34:40;;;;;;;6.60;4.50;;;9.30;66.00;;;;;;5016908;28;20482;-77
2023/04/06 10:37:18;;;;;;;8.25;4.65;;;9.30;70.50;;;;;;4995431;28;20061;-76
2023/04/06 10:39:55;;;;;;;7.15;4.65;;;9.50;66.00;;;;;;5031940;28;20037;-81
2023/04/06 10:42:25;;;;;;;10.75;4.30;;;9.40;65.80;;;;;;5020451;28;20511;-75
2023/04/06 10:44:51;;;;;;;7.15;4.18;;;9.50;65.60;;;;;;5018079;28;20040;-75
2023/04/06 10:47:18;;;;;;;7.63;3.60;;;9.40;66.00;;;;;;5002151;28;20099;-77
2023/04/06 10:49:44;;;;;;;8.82;4.95;;;9.50;65.30;;;;;;5017599;28;20030;-76
2023/04/06 10:52:11;;;;;;;8.02;4.80;;;9.60;65.70;;;;;;4998689;28;20026;-77
2023/04/06 10:54:43;;;;;;;7.20;4.32;;;9.70;65.20;;;;;;5016308;28;20246;-78
2023/04/06 10:57:08;;;;;;;7.63;4.53;;;9.80;65.50;;;;;;5019057;28;20310;-76
2023/04/06 10:59:34;;;;;;;7.55;4.65;;;9.90;63.50;;;;;;5037399;28;20128;-76
2023/04/06 11:02:00;;;;;;;8.60;4.45;;;10.00;63.20;;;;;;5000842;28;20034;-74
2023/04/06 11:04:26;;;;;;;7.95;4.93;;;10.00;63.10;;;;;;5020561;28;20108;-80
2023/04/06 11:06:52;;;;;;;7.93;5.32;;;10.20;63.50;;;;;;5019754;28;20040;-75
2023/04/06 11:09:28;;;;;;;8.23;4.63;;;10.60;62.00;;;;;;5013207;28;20509;-75
2023/04/06 11:11:55;;;;;;;9.82;6.53;;;11.70;62.00;;;;;;5020507;28;20406;-78
2023/04/06 11:14:21;;;;;;;10.43;4.85;;;13.10;62.30;;;;;;5025351;28;20018;-78
2023/04/06 11:16:49;;;;;;;7.72;5.15;;;14.40;56.30;;;;;;5026983;28;20104;-76
2023/04/06 11:19:15;;;;;;;11.38;5.60;;;15.50;51.30;;;;;;5014802;28;20034;-77
2023/04/06 11:21:48;;;;;;;13.88;6.78;;;16.30;48.40;;;;;;5026136;28;20022;-86
2023/04/06 11:24:24;;;;;;;8.13;5.60;;;17.30;48.10;;;;;;5030495;28;20489;-83
2023/04/06 11:26:53;;;;;;;6.85;5.30;;;18.10;43.80;;;;;;5010186;28;20117;-82
2023/04/06 11:29:26;;;;;;;9.73;5.93;;;19.20;42.50;;;;;;5004404;28;20565;-76
2023/04/06 11:32:00;;;;;;;8.80;5.95;;;19.60;41.10;;;;;;5044428;28;20018;-79
2023/04/06 11:34:28;;;;;;;9.20;5.13;;;19.90;39.90;;;;;;5001860;28;20084;-78
2023/04/06 11:37:02;;;;;;;7.55;5.95;;;20.30;39.70;;;;;;5023752;28;20060;-86
2023/04/06 11:39:29;;;;;;;5.65;4.70;;;19.60;39.70;;;;;;5029698;28;20073;-85
2023/04/06 11:41:58;;;;;;;8.45;5.97;;;19.40;41.10;;;;;;5023994;28;20065;-80
2023/04/06 11:44:34;;;;;;;6.75;5.63;;;18.50;40.30;;;;;;5039170;28;20026;-80
2023/04/06 11:47:06;;;;;;;6.78;5.35;;;18.10;43.10;;;;;;5029433;28;20048;-77
2023/04/06 11:49:33;;;;;;;9.88;6.88;;;17.70;41.70;;;;;;5023108;28;20029;-77
2023/04/06 11:52:00;;;;;;;8.10;6.05;;;17.00;42.20;;;;;;5053958;28;20022;-77
2023/04/06 11:54:33;;;;;;;7.93;5.78;;;16.30;43.10;;;;;;5022260;28;20422;-77
2023/04/06 11:57:00;;;;;;;8.45;6.13;;;15.80;45.20;;;;;;5017755;28;20029;-77
2023/04/06 11:59:27;;;;;;;9.48;6.53;;;15.60;44.30;;;;;;5022382;28;20076;-76
2023/04/06 12:01:54;;;;;;;7.90;5.93;;;15.30;45.60;;;;;;5015421;28;20029;-75
2023/04/06 12:04:20;;;;;;;7.38;5.70;;;15.50;44.30;;;;;;5020704;28;20033;-75
2023/04/06 12:06:46;;;;;;;7.07;5.60;;;15.40;45.30;;;;;;5016217;28;20140;-75
2023/04/06 12:09:12;;;;;;;9.32;6.00;;;15.50;44.30;;;;;;5015940;28;20109;-77
2023/04/06 12:11:37;;;;;;;8.02;6.03;;;15.70;44.70;;;;;;5015482;28;20183;-74
2023/04/06 12:14:05;;;;;;;10.32;6.45;;;15.70;44.40;;;;;;5018682;28;20079;-75
2023/04/06 12:16:34;;;;;;;9.63;6.32;;;16.00;43.80;;;;;;5018344;28;20355;-75
2023/04/06 12:19:01;;;;;;;99.78;54.97;;;15.70;44.00;;;;;;5018390;28;20390;-75
2023/04/06 12:21:38;;;;;;;217.45;148.63;;;15.70;44.50;;;;;;5013867;28;20025;-77
2023/04/06 12:24:05;;;;;;;12.52;9.68;;;15.90;44.10;;;;;;5018130;28;20109;-77
2023/04/06 12:26:31;;;;;;;10.60;6.20;;;15.90;43.50;;;;;;5018865;28;20026;-77
2023/04/06 12:29:04;;;;;;;8.93;6.55;;;16.20;44.10;;;;;;5018446;28;20084;-76
2023/04/06 12:31:30;;;;;;;8.27;5.85;;;16.70;43.50;;;;;;5020978;28;20136;-77
2023/04/06 12:33:56;;;;;;;8.40;6.00;;;17.00;43.00;;;;;;5018718;28;20105;-76
2023/04/06 12:36:21;;;;;;;9.07;5.88;;;17.60;41.70;;;;;;5019213;28;20059;-75
2023/04/06 12:38:48;;;;;;;12.82;6.43;;;17.70;41.70;;;;;;5016942;28;20167;-75
2023/04/06 12:41:14;;;;;;;9.43;6.55;;;17.80;43.10;;;;;;5018804;28;20029;-77
2023/04/06 12:43:41;;;;;;;9.90;6.03;;;17.60;41.60;;;;;;5017522;28;20029;-82
2023/04/06 12:46:07;;;;;;;8.55;6.68;;;17.20;41.70;;;;;;5018574;28;20120;-77
2023/04/06 12:48:33;;;;;;;16.67;10.63;;;18.20;41.10;;;;;;5019806;28;20141;-78
2023/04/06 12:51:03;;;;;;;32.13;20.45;;;18.40;48.20;;;;;;5018708;28;20025;-77